WetterOnline ( https://www.wetteronline.de )

Wetter aktuell Halbemond

Aktuelles Wetter: Norderney (16m)

6-stündlich | Neueste Meldungen
Ortszeit Temperatur Wetter
Di, 28.05. 20:00 16.2° C wolkig
Di, 28.05. 14:00 16.1° C wolkig
Di, 28.05. 8:00 13.4° C leichter Regen
Di, 28.05. 2:00 12.2° C leichter Regen
Mo, 27.05. 20:00 15.5° C bedeckt
Mo, 27.05. 14:00 17.4° C wolkig
Mo, 27.05. 8:00 14.9° C wolkig
Mo, 27.05. 2:00 16.1° C bedeckt
Ortszeit Temperatur Wetter
Mi, 29.05. 1:00 13.8° C leichter Regen
Mi, 29.05. 0:40 13.8° C leichter Regen
Mi, 29.05. 0:30 13.9° C leichter Regen
Mi, 29.05. 0:20 13.9° C leichter Regen
Mi, 29.05. 0:10 14.0° C leichter Regen
Mi, 29.05. 0:00 14.2° C Sprühregen
Di, 28.05. 23:50 14.2° C Sprühregen
Di, 28.05. 23:30 14.7° C leichter Regen
Di, 28.05. 23:00 14.9° C bedeckt
Di, 28.05. 22:30 15.7° C leichter Regen
Di, 28.05. 22:00 16.3° C bewölkt
Ortszeit Relative Feuchte Sichtweite
Di, 28.05. 20:00 69% 55 km
Di, 28.05. 14:00 63% >70 km
Di, 28.05. 8:00 80% 30 km
Di, 28.05. 2:00 87% 10 km
Mo, 27.05. 20:00 75% 65 km
Mo, 27.05. 14:00 61% 40 km
Mo, 27.05. 8:00 80% 35 km
Mo, 27.05. 2:00 80% >70 km
Ortszeit Relative Feuchte Sichtweite
Mi, 29.05. 1:00 92% 17 km
Mi, 29.05. 0:40 90% -
Mi, 29.05. 0:30 89% 35 km
Mi, 29.05. 0:20 89% -
Mi, 29.05. 0:10 88% -
Mi, 29.05. 0:00 85% 45 km
Di, 28.05. 23:50 85% -
Di, 28.05. 23:30 81% 55 km
Di, 28.05. 23:00 80% 60 km
Di, 28.05. 22:30 75% 55 km
Di, 28.05. 22:00 70% 55 km
Ortszeit Niederschlagsmenge Niederschlagsart
Di, 28.05. 20:00 0.1 l/m2 in 12 Std. Regen
Di, 28.05. 14:00 0.1 l/m2 in 6 Std. Regen
Di, 28.05. 8:00 8 l/m2 in 12 Std. Regen
Di, 28.05. 2:00 4 l/m2 in 6 Std. Regen
Mo, 27.05. 20:00 0.1 l/m2 in 12 Std. Regen
Mo, 27.05. 14:00 0.0 l/m2 in 6 Std. -
Mo, 27.05. 8:00 0.1 l/m2 in 12 Std. -
Mo, 27.05. 2:00 0.1 l/m2 in 6 Std. Regen
Ortszeit Niederschlagsmenge Niederschlagsart
Mi, 29.05. 1:00 0.2 l/m2 in 1 Std. Regen
Mi, 29.05. 0:40 keine Meldung -
Mi, 29.05. 0:30 0.1 l/m2 in 30 Min -
Mi, 29.05. 0:20 keine Meldung -
Mi, 29.05. 0:10 keine Meldung -
Mi, 29.05. 0:00 <0.05 l/m2 in 1 Std. Regen
Di, 28.05. 23:50 keine Meldung -
Di, 28.05. 23:30 <0.05 l/m2 in 30 Min -
Di, 28.05. 23:00 <0.05 l/m2 in 1 Std. Regen
Di, 28.05. 22:30 <0.05 l/m2 in 30 Min -
Di, 28.05. 22:00 0.0 l/m2 in 1 Std. -
Ortszeit Stärke Spitze Richtung
km/h Bft. km/h Grad Sektor
Di, 28.05. 20:00 11 2 29 100° O
Di, 28.05. 14:00 18 3 36 210° SW
Di, 28.05. 8:00 19 3 30 220° SW
Di, 28.05. 2:00 0 0 18 - -
Mo, 27.05. 20:00 13 3 30 330° NW
Mo, 27.05. 14:00 15 3 33 220° SW
Mo, 27.05. 8:00 18 3 40 220° SW
Mo, 27.05. 2:00 18 3 32 220° SW
Ortszeit Stärke Spitze Richtung
km/h Bft. km/h Grad Sektor
Mi, 29.05. 1:00 26 4 41 150° SO
Mi, 29.05. 0:40 25 4 - 160° S
Mi, 29.05. 0:30 22 4 36 160° S
Mi, 29.05. 0:20 22 4 - 160° S
Mi, 29.05. 0:10 25 4 - 160° S
Mi, 29.05. 0:00 22 4 40 160° S
Di, 28.05. 23:50 22 4 - 160° S
Di, 28.05. 23:30 22 4 39 170° S
Di, 28.05. 23:00 20 4 43 160° S
Di, 28.05. 22:30 22 4 40 180° S
Di, 28.05. 22:00 13 3 24 150° SO
Ortszeit Untergrenze Bedeckung Gattung
total tief tief mittel hoch
Di, 28.05. 20:00 6000 m 5/8 5/8 - - -
Di, 28.05. 14:00 2400 m 6/8 6/8 - - -
Di, 28.05. 8:00 1500 m 8/8 8/8 - - -
Di, 28.05. 2:00 1440 m 8/8 8/8 - - -
Mo, 27.05. 20:00 5400 m 8/8 8/8 - - -
Mo, 27.05. 14:00 1800 m 8/8 1/8 - - -
Mo, 27.05. 8:00 390 m 8/8 1/8 - - -
Mo, 27.05. 2:00 480 m 8/8 8/8 - - -
Ortszeit Bedeckungsgrad in Achtel und Wolkenuntergrenze
Mi, 29.05. 1:00 4(270m) 8(2400m) 8(3600m)
Mi, 29.05. 0:40 8
Mi, 29.05. 0:30 2(360m) 8(2700m) 8(3900m)
Mi, 29.05. 0:20 2(360m) 8(2700m) 8(3900m)
Mi, 29.05. 0:10 8
Mi, 29.05. 0:00 5(510m) 8(2100m) 8(2400m)
Di, 28.05. 23:50 5(510m) 8(2100m) 8(2400m)
Di, 28.05. 23:30 1(510m) 8(2100m)
Di, 28.05. 23:00 5(1320m) 8(1800m)
Di, 28.05. 22:30 5(1410m) 7(1500m)
Di, 28.05. 22:00 6(1500m) 7(2100m)
Ortszeit Luftdruck NN (hPa) Tendenz (hPa in 3 Std.)
Di, 28.05. 20:00 1014 - 1,6
Di, 28.05. 14:00 1016 - 0,3
Di, 28.05. 8:00 1016 + 0,5
Di, 28.05. 2:00 1017 + 0,1
Mo, 27.05. 20:00 1016 - 0,3
Mo, 27.05. 14:00 1017 + 0,2
Mo, 27.05. 8:00 1015 + 0,8
Mo, 27.05. 2:00 1014 + 0,4
Ortszeit Luftdruck NN (hPa) Tendenz (hPa in 3 Std.)
Mi, 29.05. 1:00 1010 - 2,1
Mi, 29.05. 0:40 1011 keine Meldung
Mi, 29.05. 0:30 1011 - 1,8
Mi, 29.05. 0:20 1011 keine Meldung
Mi, 29.05. 0:10 1011 keine Meldung
Mi, 29.05. 0:00 1012 - 1,2
Di, 28.05. 23:50 1012 keine Meldung
Di, 28.05. 23:30 1012 - 1,3
Di, 28.05. 23:00 1012 - 1,4
Di, 28.05. 22:30 1013 - 1,1
Di, 28.05. 22:00 1013 - 1,6
Ortszeit Schneehöhe (cm)
Di, 28.05. 20:00 0
Di, 28.05. 14:00 0
Di, 28.05. 8:00 0
Di, 28.05. 2:00 0
Mo, 27.05. 20:00 0
Mo, 27.05. 14:00 0
Mo, 27.05. 8:00 0
Mo, 27.05. 2:00 0
Ortszeit Schneehöhe (cm)
Mi, 29.05. 1:00 0
Mi, 29.05. 0:40 -
Mi, 29.05. 0:30 0
Mi, 29.05. 0:20 0
Mi, 29.05. 0:10 -
Mi, 29.05. 0:00 0
Di, 28.05. 23:50 0
Di, 28.05. 23:30 0
Di, 28.05. 23:00 0
Di, 28.05. 22:30 0
Di, 28.05. 22:00 0
Link zu dieser Seite / Seite empfehlen

Das Wetter in ...